createdAt,value
2017-10-27T00:01:42.060Z,25.73
2017-10-27T00:04:09.616Z,21.83
2017-10-27T00:06:37.779Z,24.07
2017-10-27T00:09:05.536Z,24.60
2017-10-27T00:11:33.060Z,24.00
2017-10-27T00:14:00.621Z,22.33
2017-10-27T00:16:28.155Z,23.57
2017-10-27T00:18:56.474Z,22.27
2017-10-27T00:21:23.992Z,22.67
2017-10-27T00:23:52.266Z,23.87
2017-10-27T00:26:20.581Z,23.27
2017-10-27T00:28:48.108Z,23.60
2017-10-27T00:31:16.875Z,23.83
2017-10-27T00:33:45.209Z,24.60
2017-10-27T00:36:12.729Z,26.30
2017-10-27T00:38:41.012Z,27.13
2017-10-27T00:41:09.629Z,26.90
2017-10-27T00:43:38.008Z,26.40
2017-10-27T00:46:05.525Z,28.13
2017-10-27T00:48:33.844Z,28.27
2017-10-27T00:51:01.361Z,31.13
2017-10-27T00:53:29.646Z,30.40
2017-10-27T00:55:57.968Z,31.53
2017-10-27T00:58:25.517Z,30.00
2017-10-27T01:00:53.039Z,33.07
2017-10-27T01:03:21.345Z,36.60
2017-10-27T01:05:48.871Z,34.70
2017-10-27T01:08:17.380Z,34.97
2017-10-27T01:10:44.948Z,37.57
2017-10-27T01:13:12.512Z,39.03
2017-10-27T01:15:40.032Z,39.50
2017-10-27T01:18:08.317Z,37.23
2017-10-27T01:20:35.879Z,36.70
2017-10-27T01:23:04.144Z,39.67
2017-10-27T01:25:32.429Z,39.40
2017-10-27T01:28:00.734Z,37.70
2017-10-27T01:30:28.237Z,40.47
2017-10-27T01:32:55.783Z,37.87
2017-10-27T01:35:23.314Z,36.07
2017-10-27T01:37:51.591Z,38.57
2017-10-27T01:40:19.149Z,34.67
2017-10-27T01:42:47.432Z,36.07
2017-10-27T01:45:15.189Z,35.93
2017-10-27T01:47:42.709Z,35.63
2017-10-27T01:50:10.999Z,35.20
2017-10-27T01:52:38.585Z,38.17
2017-10-27T01:55:06.147Z,35.87
2017-10-27T01:57:33.663Z,36.70
2017-10-27T02:00:01.962Z,34.57
2017-10-27T02:02:29.516Z,37.97
2017-10-27T02:04:57.038Z,35.60
2017-10-27T02:07:24.805Z,37.60
2017-10-27T02:09:52.363Z,33.70
2017-10-27T02:12:19.877Z,35.77
2017-10-27T02:14:47.405Z,35.80
2017-10-27T02:17:15.685Z,34.70
2017-10-27T02:19:43.958Z,33.40
2017-10-27T02:22:12.237Z,32.10
2017-10-27T02:24:40.624Z,35.50
2017-10-27T02:27:08.893Z,33.23
2017-10-27T02:29:37.180Z,30.13
2017-10-27T02:32:04.715Z,33.50
2017-10-27T02:34:33.601Z,32.43
2017-10-27T02:37:01.123Z,31.87
2017-10-27T02:39:29.411Z,28.73
2017-10-27T02:41:56.991Z,31.23
2017-10-27T02:44:24.505Z,31.70
2017-10-27T02:46:52.024Z,31.07
2017-10-27T02:49:20.678Z,29.97
2017-10-27T02:51:48.192Z,28.60
2017-10-27T02:54:15.780Z,27.97
2017-10-27T02:56:43.299Z,29.80
2017-10-27T02:59:11.985Z,28.47
2017-10-27T03:01:40.332Z,29.60
2017-10-27T03:04:08.493Z,31.73
2017-10-27T03:06:36.913Z,29.73
2017-10-27T03:09:05.214Z,29.77
2017-10-27T03:11:32.729Z,29.37
2017-10-27T03:14:00.252Z,29.67
2017-10-27T03:16:27.807Z,31.53
2017-10-27T03:18:55.505Z,32.20
2017-10-27T03:21:23.788Z,31.80
2017-10-27T03:23:51.325Z,31.90
2017-10-27T03:26:18.828Z,31.37
2017-10-27T03:28:46.333Z,31.10
2017-10-27T03:31:13.903Z,31.17
2017-10-27T03:33:42.015Z,27.30
2017-10-27T03:36:10.285Z,29.40
2017-10-27T03:38:38.567Z,30.30
2017-10-27T03:41:06.369Z,29.57
2017-10-27T03:43:34.056Z,28.23
2017-10-27T03:46:01.587Z,27.80
2017-10-27T03:48:29.657Z,28.43
2017-10-27T03:50:57.468Z,29.30
2017-10-27T03:53:24.999Z,28.53
2017-10-27T03:55:53.202Z,28.70
2017-10-27T03:58:20.970Z,30.47
2017-10-27T04:00:48.525Z,32.13
2017-10-27T04:03:16.816Z,28.70
2017-10-27T04:05:44.369Z,29.70
2017-10-27T04:08:11.907Z,28.33
2017-10-27T04:10:40.150Z,30.03
2017-10-27T04:13:08.427Z,28.10
2017-10-27T04:15:35.960Z,29.53
2017-10-27T04:18:03.460Z,25.40
2017-10-27T04:20:30.975Z,26.23
2017-10-27T04:22:58.536Z,24.47
2017-10-27T04:25:26.040Z,23.70
2017-10-27T04:27:54.218Z,23.47
2017-10-27T04:30:22.709Z,22.70
2017-10-27T04:32:50.256Z,23.00
2017-10-27T04:35:17.768Z,21.17
2017-10-27T04:37:45.285Z,21.33
2017-10-27T04:40:12.793Z,23.40
2017-10-27T04:42:41.056Z,23.73
2017-10-27T04:45:09.380Z,23.13
2017-10-27T04:47:36.861Z,23.70
2017-10-27T04:50:04.388Z,22.00
2017-10-27T04:52:32.714Z,21.83
2017-10-27T04:55:01.007Z,19.63
2017-10-27T04:57:29.272Z,18.63
2017-10-27T04:59:57.557Z,17.27
2017-10-27T05:02:26.684Z,17.53
2017-10-27T05:04:54.320Z,19.20
2017-10-27T05:07:21.887Z,19.37
2017-10-27T05:09:49.424Z,19.30
2017-10-27T05:12:17.748Z,20.37
2017-10-27T05:14:45.273Z,17.53
2017-10-27T05:17:18.534Z,18.03
2017-10-27T05:19:51.734Z,17.13
2017-10-27T05:22:24.903Z,18.57
2017-10-27T05:24:52.435Z,20.37
2017-10-27T05:27:20.716Z,16.93
2017-10-27T05:29:48.229Z,14.70
2017-10-27T05:32:16.654Z,14.87
2017-10-27T05:34:44.185Z,15.07
2017-10-27T05:37:11.768Z,12.77
2017-10-27T05:39:39.305Z,10.40
2017-10-27T05:42:07.582Z,11.80
2017-10-27T05:44:35.958Z,11.83
2017-10-27T05:47:04.560Z,11.70
2017-10-27T05:49:32.051Z,10.33
2017-10-27T05:52:00.271Z,11.63
2017-10-27T05:54:27.873Z,10.10
2017-10-27T05:56:55.392Z,9.40
2017-10-27T05:59:23.655Z,9.40
2017-10-27T06:01:52.629Z,10.00
2017-10-27T06:04:20.336Z,9.33
2017-10-27T06:06:47.857Z,8.50
2017-10-27T06:09:15.379Z,8.83
2017-10-27T06:11:42.901Z,8.43
2017-10-27T06:14:11.188Z,7.10
2017-10-27T06:16:38.707Z,7.27
2017-10-27T06:19:06.209Z,6.40
2017-10-27T06:21:33.737Z,6.37
2017-10-27T06:24:01.251Z,7.30
2017-10-27T06:26:28.757Z,5.90
2017-10-27T06:28:57.050Z,5.70
2017-10-27T06:31:24.563Z,5.03
2017-10-27T06:33:52.067Z,5.27
2017-10-27T06:36:20.367Z,5.87
2017-10-27T06:38:47.882Z,5.03
2017-10-27T06:41:16.236Z,4.00
2017-10-27T06:43:43.785Z,4.60
2017-10-27T06:46:11.283Z,4.07
2017-10-27T06:48:39.068Z,4.37
2017-10-27T06:51:06.625Z,4.07
2017-10-27T06:53:34.933Z,7.70
2017-10-27T06:56:02.444Z,4.17
2017-10-27T06:58:30.221Z,3.43
2017-10-27T07:00:57.732Z,3.50
2017-10-27T07:03:25.260Z,3.90
2017-10-27T07:05:52.808Z,3.40
2017-10-27T07:08:20.332Z,3.10
2017-10-27T07:10:47.872Z,3.53
2017-10-27T07:13:15.467Z,3.57
2017-10-27T07:15:43.721Z,3.13
2017-10-27T07:18:11.340Z,3.70
2017-10-27T07:20:38.899Z,3.47
2017-10-27T07:23:06.644Z,4.93
2017-10-27T07:25:34.220Z,3.07
2017-10-27T07:28:02.467Z,4.20
2017-10-27T07:30:29.973Z,4.43
2017-10-27T07:32:57.487Z,3.67
2017-10-27T07:35:25.801Z,3.60
2017-10-27T07:37:54.872Z,3.53
2017-10-27T07:40:22.396Z,3.57
2017-10-27T07:42:50.044Z,3.50
2017-10-27T07:45:17.553Z,4.13
2017-10-27T07:47:45.063Z,4.10
2017-10-27T07:50:12.607Z,3.00
2017-10-27T07:52:40.116Z,3.97
2017-10-27T07:55:07.633Z,3.20
2017-10-27T07:57:36.181Z,3.67
2017-10-27T08:00:03.718Z,3.90
2017-10-27T08:02:31.281Z,3.50
2017-10-27T08:04:58.821Z,3.30
2017-10-27T08:07:27.449Z,2.90
2017-10-27T08:09:54.972Z,3.00
2017-10-27T08:12:23.262Z,3.30
2017-10-27T08:14:50.775Z,3.20
2017-10-27T08:17:18.293Z,2.40
2017-10-27T08:19:45.856Z,3.40
2017-10-27T08:22:13.419Z,3.03
2017-10-27T08:24:40.983Z,3.50
2017-10-27T08:27:08.536Z,2.30
2017-10-27T08:29:36.037Z,2.77
2017-10-27T08:32:03.537Z,2.70
2017-10-27T08:34:31.080Z,2.63
2017-10-27T08:36:59.359Z,3.23
2017-10-27T08:39:27.635Z,2.80
2017-10-27T08:41:55.925Z,2.73
2017-10-27T08:44:24.133Z,2.33
2017-10-27T08:46:51.985Z,1.80
2017-10-27T08:49:19.529Z,2.80
2017-10-27T08:51:47.057Z,1.92
2017-10-27T08:54:15.351Z,2.40
2017-10-27T08:56:42.874Z,2.60
2017-10-27T08:59:10.409Z,2.20
2017-10-27T09:01:38.217Z,2.40
2017-10-27T09:04:05.982Z,2.08
2017-10-27T09:06:34.269Z,2.00
2017-10-27T09:09:02.939Z,2.00
2017-10-27T09:11:30.884Z,2.30
2017-10-27T09:13:59.251Z,2.30
2017-10-27T09:16:26.757Z,2.10
2017-10-27T09:18:55.073Z,1.70
2017-10-27T09:21:22.584Z,2.10
2017-10-27T09:23:50.870Z,2.00
2017-10-27T09:26:19.549Z,2.10
2017-10-27T09:28:47.839Z,2.07
2017-10-27T09:31:16.101Z,2.10
2017-10-27T09:33:44.409Z,2.37
2017-10-27T09:36:11.904Z,1.97
2017-10-27T09:38:39.401Z,2.33
2017-10-27T09:41:08.312Z,2.20
2017-10-27T09:43:35.947Z,2.40
2017-10-27T09:46:04.215Z,2.17
2017-10-27T09:48:31.744Z,1.77
2017-10-27T09:50:59.280Z,2.57
2017-10-27T09:53:26.809Z,1.65
2017-10-27T09:55:55.093Z,1.65
2017-10-27T09:58:23.209Z,2.05
2017-10-27T10:00:50.729Z,1.80
2017-10-27T10:03:19.333Z,2.20
2017-10-27T10:05:46.840Z,2.33
2017-10-27T10:08:15.167Z,1.95
2017-10-27T10:10:43.138Z,2.00
2017-10-27T10:13:10.671Z,1.80
2017-10-27T10:15:38.359Z,1.90
2017-10-27T10:18:06.068Z,2.03
2017-10-27T10:20:34.092Z,2.90
2017-10-27T10:23:01.878Z,2.33
2017-10-27T10:25:29.589Z,2.40
2017-10-27T10:27:57.162Z,2.00
2017-10-27T10:30:24.672Z,2.90
2017-10-27T10:32:52.215Z,1.90
2017-10-27T10:35:19.718Z,1.93
2017-10-27T10:37:47.959Z,2.43
2017-10-27T10:40:16.006Z,1.90
2017-10-27T10:42:43.523Z,2.10
2017-10-27T10:45:11.043Z,1.98
2017-10-27T10:47:38.923Z,2.27
2017-10-27T10:50:06.701Z,2.70
2017-10-27T10:52:34.241Z,2.80
2017-10-27T10:55:02.243Z,2.20
2017-10-27T10:57:30.594Z,1.90
2017-10-27T10:59:58.548Z,3.30
2017-10-27T11:02:27.421Z,2.60
2017-10-27T11:04:55.866Z,2.23
2017-10-27T11:07:24.280Z,2.00
2017-10-27T11:09:52.128Z,1.75
2017-10-27T11:12:20.004Z,1.80
